Terminal Aerodrome Forecast
Issued by NWS Tampa Bay Area, FL

Home | Current Version | Previous Version | Text Only | Print | Product List | Glossary On
Versions: 1 2 3 4 5 6 7 8 9 10 11 12 13
000
FTUS42 KTBW 010536
TAFSRQ
TAF
KSRQ 010536Z 0106/0206 VRB03KT P6SM FEW070
     FM011400 09005KT P6SM SCT030 SCT250
     FM011800 27008KT P6SM VCTS SCT045CB SCT250
     FM012300 32007KT P6SM VCTS FEW030 SCT050CB
     FM020100 36005KT P6SM FEW100 SCT250
     FM020200 06004KT P6SM SCT250=

USA.gov is the U.S. government's official web portal to all federal, state and local government web resources and services.